createdAt,value
2018-10-17T00:01:17.346Z,20.07
2018-10-17T00:03:45.649Z,16.87
2018-10-17T00:06:14.081Z,18.70
2018-10-17T00:08:42.677Z,18.40
2018-10-17T00:11:11.166Z,22.10
2018-10-17T00:13:39.523Z,18.80
2018-10-17T00:16:07.978Z,19.07
2018-10-17T00:18:36.454Z,18.50
2018-10-17T00:21:05.342Z,17.37
2018-10-17T00:23:34.085Z,18.90
2018-10-17T00:26:03.191Z,17.43
2018-10-17T00:28:31.601Z,20.47
2018-10-17T00:31:00.040Z,17.37
2018-10-17T00:33:28.437Z,19.77
2018-10-17T00:35:56.882Z,18.53
2018-10-17T00:38:25.338Z,22.20
2018-10-17T00:40:53.780Z,16.70
2018-10-17T00:43:22.190Z,17.97
2018-10-17T00:45:50.619Z,19.50
2018-10-17T00:48:19.075Z,18.73
2018-10-17T00:50:47.518Z,19.60
2018-10-17T00:53:16.019Z,18.40
2018-10-17T00:55:44.329Z,22.00
2018-10-17T00:58:12.704Z,18.83
2018-10-17T01:00:41.136Z,21.43
2018-10-17T01:03:09.574Z,18.13
2018-10-17T01:05:37.974Z,17.90
2018-10-17T01:08:06.434Z,17.70
2018-10-17T01:10:34.810Z,19.13
2018-10-17T01:13:03.240Z,17.93
2018-10-17T01:15:31.638Z,18.20
2018-10-17T01:18:00.064Z,18.27
2018-10-17T01:20:28.455Z,23.77
2018-10-17T01:22:56.928Z,17.97
2018-10-17T01:25:25.305Z,19.83
2018-10-17T01:27:53.718Z,21.67
2018-10-17T01:30:22.211Z,19.50
2018-10-17T01:32:50.610Z,20.70
2018-10-17T01:35:19.017Z,25.53
2018-10-17T01:37:47.613Z,26.57
2018-10-17T01:40:15.993Z,26.67
2018-10-17T01:42:44.398Z,28.83
2018-10-17T01:45:12.785Z,24.33
2018-10-17T01:47:41.366Z,25.30
2018-10-17T01:50:09.900Z,25.90
2018-10-17T01:52:38.439Z,26.37
2018-10-17T01:55:07.355Z,34.13
2018-10-17T01:57:43.487Z,33.23
2018-10-17T02:00:11.856Z,41.00
2018-10-17T02:02:40.246Z,43.10
2018-10-17T02:05:08.700Z,50.17
2018-10-17T02:07:37.045Z,48.97
2018-10-17T02:10:05.623Z,49.37
2018-10-17T02:12:33.978Z,51.40
2018-10-17T02:15:02.343Z,51.87
2018-10-17T02:17:30.711Z,48.07
2018-10-17T02:19:59.192Z,41.60
2018-10-17T02:22:27.578Z,42.13
2018-10-17T02:24:55.977Z,40.23
2018-10-17T02:27:24.423Z,45.97
2018-10-17T02:29:52.832Z,33.67
2018-10-17T02:32:21.179Z,36.77
2018-10-17T02:34:54.944Z,37.70
2018-10-17T02:37:23.306Z,37.60
2018-10-17T02:39:51.667Z,31.53
2018-10-17T02:42:20.029Z,38.20
2018-10-17T02:44:49.241Z,37.47
2018-10-17T02:47:17.606Z,38.40
2018-10-17T02:49:45.964Z,35.50
2018-10-17T02:52:14.328Z,35.57
2018-10-17T02:54:42.911Z,35.73
2018-10-17T02:57:11.278Z,40.57
2018-10-17T02:59:39.692Z,34.67
2018-10-17T03:02:08.070Z,33.63
2018-10-17T03:04:36.459Z,31.70
2018-10-17T03:07:04.863Z,31.33
2018-10-17T03:09:33.387Z,31.93
2018-10-17T03:12:01.967Z,31.50
2018-10-17T03:14:30.378Z,36.27
2018-10-17T03:16:58.790Z,31.17
2018-10-17T03:19:27.160Z,30.87
2018-10-17T03:21:55.553Z,31.67
2018-10-17T03:24:23.932Z,28.37
2018-10-17T03:26:52.401Z,30.70
2018-10-17T03:29:20.813Z,32.87
2018-10-17T03:31:49.182Z,29.13
2018-10-17T03:34:17.584Z,28.47
2018-10-17T03:36:45.966Z,27.97
2018-10-17T03:39:14.363Z,26.70
2018-10-17T03:41:42.732Z,26.90
2018-10-17T03:44:11.120Z,31.97
2018-10-17T03:46:39.502Z,33.40
2018-10-17T03:49:08.553Z,33.70
2018-10-17T03:51:36.815Z,31.53
2018-10-17T03:54:05.480Z,31.70
2018-10-17T03:56:33.913Z,27.83
2018-10-17T03:59:02.413Z,26.17
2018-10-17T04:01:30.670Z,28.90
2018-10-17T04:03:59.180Z,28.07
2018-10-17T04:06:27.569Z,26.83
2018-10-17T04:08:55.965Z,28.00
2018-10-17T04:11:24.322Z,28.17
2018-10-17T04:13:52.787Z,26.47
2018-10-17T04:16:21.127Z,24.13
2018-10-17T04:18:49.511Z,25.17
2018-10-17T04:21:17.855Z,24.40
2018-10-17T04:23:46.502Z,33.60
2018-10-17T04:26:14.827Z,33.47
2018-10-17T04:28:43.210Z,30.80
2018-10-17T04:31:11.673Z,27.90
2018-10-17T04:33:40.034Z,36.20
2018-10-17T04:36:08.397Z,28.33
2018-10-17T04:38:36.726Z,27.67
2018-10-17T04:41:05.261Z,26.77
2018-10-17T04:43:33.579Z,28.33
2018-10-17T04:46:01.948Z,31.97
2018-10-17T04:48:30.367Z,31.27
2018-10-17T04:50:58.798Z,27.20
2018-10-17T04:53:27.195Z,25.73
2018-10-17T04:55:56.088Z,25.03
2018-10-17T04:58:24.514Z,29.37
2018-10-17T05:00:53.171Z,28.90
2018-10-17T05:03:21.491Z,25.47
2018-10-17T05:05:49.867Z,22.43
2018-10-17T05:08:18.226Z,27.17
2018-10-17T05:10:46.575Z,27.07
2018-10-17T05:13:15.193Z,27.03
2018-10-17T05:15:44.202Z,29.67
2018-10-17T05:18:12.549Z,26.73
2018-10-17T05:20:40.931Z,30.87
2018-10-17T05:23:09.401Z,28.03
2018-10-17T05:25:37.778Z,27.83
2018-10-17T05:28:06.278Z,30.80
2018-10-17T05:30:35.682Z,35.47
2018-10-17T05:33:04.661Z,28.50
2018-10-17T05:35:33.055Z,28.13
2018-10-17T05:38:01.502Z,27.37
2018-10-17T05:40:29.834Z,29.23
2018-10-17T05:42:58.325Z,24.00
2018-10-17T05:45:26.783Z,24.27
2018-10-17T05:47:56.159Z,29.77
2018-10-17T05:50:25.333Z,26.27
2018-10-17T05:52:54.032Z,29.03
2018-10-17T05:55:22.870Z,25.90
2018-10-17T05:57:51.952Z,27.87
2018-10-17T06:00:21.239Z,27.47
2018-10-17T06:02:50.570Z,28.47
2018-10-17T06:05:20.092Z,28.80
2018-10-17T06:07:50.029Z,28.37
2018-10-17T06:10:19.364Z,28.83
2018-10-17T06:12:47.941Z,28.20
2018-10-17T06:15:16.667Z,28.40
2018-10-17T06:17:45.083Z,36.63
2018-10-17T06:20:13.716Z,32.97
2018-10-17T06:22:42.922Z,35.77
2018-10-17T06:25:11.466Z,33.93
2018-10-17T06:27:39.878Z,42.97
2018-10-17T06:30:09.591Z,38.93
2018-10-17T06:32:38.024Z,41.47
2018-10-17T06:35:06.936Z,43.37
2018-10-17T06:37:35.671Z,39.97
2018-10-17T06:40:04.466Z,37.93
2018-10-17T06:42:32.846Z,40.83
2018-10-17T06:45:01.614Z,36.73
2018-10-17T06:47:30.031Z,35.43
2018-10-17T06:49:58.431Z,31.73
2018-10-17T06:52:27.082Z,30.83
2018-10-17T06:54:56.209Z,29.33
2018-10-17T06:57:24.782Z,30.80
2018-10-17T06:59:53.218Z,31.37
2018-10-17T07:02:21.743Z,32.30
2018-10-17T07:04:50.263Z,28.30
2018-10-17T07:07:18.806Z,27.97
2018-10-17T07:09:47.181Z,27.90
2018-10-17T07:12:15.994Z,30.33
2018-10-17T07:14:44.422Z,27.00
2018-10-17T07:17:13.341Z,30.47
2018-10-17T07:19:43.588Z,26.03
2018-10-17T07:22:13.208Z,31.43
2018-10-17T07:24:43.671Z,25.73
2018-10-17T07:27:12.111Z,28.60
2018-10-17T07:29:40.718Z,30.57
2018-10-17T07:32:09.075Z,32.77
2018-10-17T07:34:37.491Z,28.07
2018-10-17T07:37:06.358Z,32.47
2018-10-17T07:39:34.746Z,28.57
2018-10-17T07:42:04.285Z,33.00
2018-10-17T07:44:32.626Z,28.80
2018-10-17T07:47:01.089Z,33.67
2018-10-17T07:49:29.442Z,34.17
2018-10-17T07:51:57.878Z,33.47
2018-10-17T07:54:26.240Z,31.50
2018-10-17T07:56:54.747Z,30.80
2018-10-17T07:59:23.224Z,31.23
2018-10-17T08:01:51.599Z,36.50
2018-10-17T08:04:19.942Z,32.37
2018-10-17T08:06:48.460Z,38.03
2018-10-17T08:09:16.852Z,35.07
2018-10-17T08:11:45.227Z,32.67
2018-10-17T08:14:13.595Z,31.33
2018-10-17T08:16:42.031Z,35.43
2018-10-17T08:19:11.492Z,35.43
2018-10-17T08:21:39.894Z,48.33
2018-10-17T08:24:08.302Z,52.30
2018-10-17T08:26:36.706Z,45.13
2018-10-17T08:29:05.120Z,47.50
2018-10-17T08:31:33.500Z,47.37
2018-10-17T08:34:01.912Z,48.03
2018-10-17T08:36:30.631Z,49.80
2018-10-17T08:38:58.794Z,48.17
2018-10-17T08:41:27.252Z,46.03
2018-10-17T08:43:55.737Z,44.47
2018-10-17T08:46:24.183Z,45.53
2018-10-17T08:48:52.613Z,41.80
2018-10-17T08:51:21.066Z,45.47
2018-10-17T08:53:49.519Z,46.07
2018-10-17T08:56:18.316Z,41.83
2018-10-17T08:58:46.634Z,46.37
2018-10-17T09:01:15.054Z,40.13
2018-10-17T09:03:43.463Z,53.87
2018-10-17T09:06:11.899Z,40.07
2018-10-17T09:08:40.218Z,44.87
2018-10-17T09:11:08.598Z,39.57
2018-10-17T09:13:37.054Z,40.47
2018-10-17T09:16:06.583Z,41.90
2018-10-17T09:18:34.939Z,40.47
2018-10-17T09:21:03.872Z,41.27
2018-10-17T09:23:32.006Z,43.47
2018-10-17T09:26:00.460Z,45.90
2018-10-17T09:28:28.822Z,41.70
2018-10-17T09:30:57.240Z,41.80
2018-10-17T09:33:25.643Z,53.70
2018-10-17T09:35:54.062Z,35.20
2018-10-17T09:38:22.421Z,38.20
2018-10-17T09:40:50.800Z,42.27
2018-10-17T09:43:19.175Z,41.83
2018-10-17T09:45:47.551Z,42.10
2018-10-17T09:48:16.142Z,41.47
2018-10-17T09:50:44.423Z,38.37
2018-10-17T09:53:12.912Z,38.33
2018-10-17T09:55:41.463Z,41.80
2018-10-17T09:58:10.409Z,39.47
2018-10-17T10:00:44.261Z,48.55
2018-10-17T10:03:12.698Z,47.50
2018-10-17T10:05:41.239Z,39.10
2018-10-17T10:08:09.823Z,41.17
2018-10-17T10:10:38.251Z,39.47
2018-10-17T10:13:06.697Z,43.50
2018-10-17T10:15:35.130Z,38.20
2018-10-17T10:18:03.532Z,40.87
2018-10-17T10:20:31.929Z,39.93
2018-10-17T10:23:00.673Z,39.95
2018-10-17T10:25:29.106Z,42.73
2018-10-17T10:27:57.551Z,42.37
2018-10-17T10:30:25.965Z,46.87
2018-10-17T10:32:54.387Z,43.77
2018-10-17T10:35:22.870Z,40.90
2018-10-17T10:37:52.427Z,38.40
2018-10-17T10:40:20.831Z,39.83
2018-10-17T10:42:49.278Z,39.23
2018-10-17T10:45:17.800Z,39.83
2018-10-17T10:47:46.126Z,43.00
2018-10-17T10:50:14.636Z,37.47
2018-10-17T10:52:43.052Z,40.23
2018-10-17T10:55:11.478Z,40.73
2018-10-17T10:57:40.203Z,38.92
2018-10-17T11:00:08.750Z,38.25
2018-10-17T11:02:37.105Z,39.55
2018-10-17T11:05:05.759Z,39.70
2018-10-17T11:07:34.151Z,41.98
2018-10-17T11:10:02.618Z,35.95
2018-10-17T11:12:31.064Z,38.95
2018-10-17T11:14:59.605Z,33.98
2018-10-17T11:17:27.881Z,37.63
2018-10-17T11:19:56.292Z,37.25
2018-10-17T11:22:24.679Z,36.23
2018-10-17T11:24:53.114Z,40.90
2018-10-17T11:27:21.559Z,36.55
2018-10-17T11:29:49.959Z,40.25
2018-10-17T11:32:18.374Z,39.58
2018-10-17T11:34:46.783Z,35.98
2018-10-17T11:37:15.273Z,38.93
2018-10-17T11:39:43.661Z,34.92
2018-10-17T11:42:12.115Z,37.67
2018-10-17T11:44:40.482Z,36.13
2018-10-17T11:47:09.245Z,35.28
2018-10-17T11:49:37.551Z,33.45
2018-10-17T11:52:06.072Z,35.90
2018-10-17T11:54:34.446Z,30.95
2018-10-17T11:57:03.025Z,33.08
2018-10-17T11:59:31.391Z,41.00
2018-10-17T12:01:59.810Z,37.23
2018-10-17T12:04:28.433Z,36.88
2018-10-17T12:06:56.555Z,36.03
2018-10-17T12:09:24.995Z,40.12
2018-10-17T12:11:53.478Z,34.30
2018-10-17T12:14:21.876Z,34.33
2018-10-17T12:16:50.258Z,39.55
2018-10-17T12:19:18.943Z,35.63
2018-10-17T12:21:47.343Z,36.83
2018-10-17T12:24:16.065Z,38.13
2018-10-17T12:26:44.271Z,35.52
2018-10-17T12:29:12.706Z,32.90
2018-10-17T12:31:41.095Z,35.48
2018-10-17T12:34:09.475Z,34.30
2018-10-17T12:36:37.863Z,34.53
2018-10-17T12:39:09.359Z,32.53
2018-10-17T12:41:37.753Z,36.70
2018-10-17T12:44:06.233Z,29.52
2018-10-17T12:46:34.611Z,29.95
2018-10-17T12:49:03.020Z,37.85
2018-10-17T12:51:31.527Z,25.05
2018-10-17T12:53:59.923Z,42.33
2018-10-17T12:56:28.290Z,47.67
2018-10-17T12:58:56.699Z,34.80
2018-10-17T13:01:25.097Z,32.65
2018-10-17T13:03:53.466Z,26.55
2018-10-17T13:06:21.835Z,29.27
2018-10-17T13:08:50.222Z,23.67
2018-10-17T13:11:18.590Z,25.88
2018-10-17T13:13:46.967Z,24.23
2018-10-17T13:16:15.331Z,21.30
2018-10-17T13:18:43.721Z,24.23
2018-10-17T13:21:12.463Z,24.32
2018-10-17T13:23:41.873Z,27.15
2018-10-17T13:26:10.263Z,24.50
2018-10-17T13:28:38.831Z,27.58
2018-10-17T13:31:07.222Z,18.20
2018-10-17T13:33:35.622Z,18.02
2018-10-17T13:36:04.032Z,19.55
2018-10-17T13:38:32.479Z,15.15
2018-10-17T13:41:00.851Z,15.68
2018-10-17T13:43:29.274Z,17.30
2018-10-17T13:45:57.743Z,17.40
2018-10-17T13:48:26.129Z,16.95
2018-10-17T13:50:54.625Z,16.85
2018-10-17T13:53:23.043Z,21.10
2018-10-17T13:55:51.577Z,27.30
2018-10-17T13:58:20.114Z,25.43
2018-10-17T14:00:48.496Z,25.85
2018-10-17T14:03:16.897Z,19.37
2018-10-17T14:05:45.534Z,15.83
2018-10-17T14:08:14.566Z,35.17
2018-10-17T14:10:43.007Z,19.92
2018-10-17T14:13:11.460Z,18.92
2018-10-17T14:15:39.816Z,14.85
2018-10-17T14:20:54.089Z,16.73
2018-10-17T14:23:23.294Z,16.25
2018-10-17T14:25:51.623Z,25.95
2018-10-17T14:28:20.053Z,25.95
2018-10-17T14:30:48.487Z,14.28
2018-10-17T14:33:16.954Z,30.12
2018-10-17T14:35:45.347Z,32.08
2018-10-17T14:38:13.784Z,22.75
2018-10-17T14:40:42.195Z,36.42
2018-10-17T14:43:10.641Z,15.03
2018-10-17T14:45:39.078Z,16.40
2018-10-17T14:48:07.809Z,15.60
2018-10-17T14:50:36.186Z,18.07
2018-10-17T14:53:04.749Z,22.00
2018-10-17T14:55:33.287Z,21.70
2018-10-17T14:58:01.661Z,26.10
2018-10-17T15:00:30.054Z,19.27
2018-10-17T15:02:58.516Z,30.25
2018-10-17T15:05:26.868Z,19.02
2018-10-17T15:07:55.312Z,32.93
2018-10-17T15:10:23.909Z,31.05
2018-10-17T15:12:52.275Z,35.92
2018-10-17T15:15:20.827Z,14.00
2018-10-17T15:17:49.361Z,29.70
2018-10-17T15:20:17.925Z,26.10
2018-10-17T15:22:46.335Z,19.55
2018-10-17T15:25:14.755Z,20.57
2018-10-17T15:27:43.138Z,23.52
2018-10-17T15:30:11.747Z,27.20
2018-10-17T15:32:40.090Z,72.22
2018-10-17T15:35:09.102Z,28.92
2018-10-17T15:37:37.629Z,24.07
2018-10-17T15:40:06.168Z,15.95
2018-10-17T15:42:34.623Z,15.63
2018-10-17T15:45:03.130Z,21.23
2018-10-17T15:47:31.547Z,18.05
2018-10-17T15:50:00.022Z,24.30
2018-10-17T15:52:28.517Z,27.50
2018-10-17T15:54:57.021Z,21.15
2018-10-17T15:57:25.423Z,24.23
2018-10-17T15:59:53.899Z,21.45
2018-10-17T16:02:22.378Z,19.57
2018-10-17T16:04:50.754Z,17.23
2018-10-17T16:07:19.191Z,26.97
2018-10-17T16:09:48.265Z,17.32
2018-10-17T16:12:16.767Z,22.65
2018-10-17T16:14:45.167Z,19.92
2018-10-17T16:17:13.648Z,21.20
2018-10-17T16:19:42.011Z,28.85
2018-10-17T16:22:10.612Z,35.90
2018-10-17T16:24:39.023Z,36.28
2018-10-17T16:27:07.455Z,27.48
2018-10-17T16:29:35.915Z,27.13
2018-10-17T16:32:04.621Z,21.57
2018-10-17T16:34:33.072Z,22.70
2018-10-17T16:37:01.690Z,23.00
2018-10-17T16:39:30.087Z,34.78
2018-10-17T16:41:58.524Z,33.80
2018-10-17T16:44:26.961Z,29.10
2018-10-17T16:46:56.022Z,27.40
2018-10-17T16:49:24.776Z,18.70
2018-10-17T16:51:53.183Z,19.67
2018-10-17T16:54:21.571Z,27.82
2018-10-17T16:56:50.638Z,22.77
2018-10-17T16:59:19.021Z,19.23
2018-10-17T17:01:50.426Z,21.93
2018-10-17T17:04:18.841Z,14.97
2018-10-17T17:06:47.231Z,27.63
2018-10-17T17:09:15.743Z,36.20
2018-10-17T17:11:44.129Z,22.80
2018-10-17T17:14:12.504Z,22.62
2018-10-17T17:16:40.991Z,17.17
2018-10-17T17:19:09.547Z,20.70
2018-10-17T17:21:37.960Z,29.30
2018-10-17T17:24:06.428Z,14.23
2018-10-17T17:26:34.879Z,18.57
2018-10-17T17:29:06.121Z,20.30
2018-10-17T17:31:34.518Z,43.70
2018-10-17T17:34:02.961Z,58.50
2018-10-17T17:36:31.680Z,35.37
2018-10-17T17:38:59.980Z,33.83
2018-10-17T17:41:28.406Z,29.80
2018-10-17T17:43:57.016Z,43.17
2018-10-17T17:46:25.572Z,26.40
2018-10-17T17:48:53.993Z,41.20
2018-10-17T17:51:22.473Z,53.03
2018-10-17T17:53:50.984Z,67.90
2018-10-17T17:56:19.407Z,25.07
2018-10-17T17:58:47.869Z,79.70
2018-10-17T18:01:16.338Z,42.70
2018-10-17T18:03:44.788Z,51.67
2018-10-17T18:06:13.199Z,49.77
2018-10-17T18:08:41.608Z,84.73
2018-10-17T18:11:20.849Z,80.17
2018-10-17T18:13:49.945Z,45.28
2018-10-17T18:16:18.425Z,30.83
2018-10-17T18:18:46.879Z,39.77
2018-10-17T18:21:15.620Z,28.03
2018-10-17T18:23:44.414Z,50.03
2018-10-17T18:26:13.143Z,66.77
2018-10-17T18:28:42.162Z,38.47
2018-10-17T18:31:10.849Z,58.53
2018-10-17T18:33:39.341Z,74.50
2018-10-17T18:36:07.804Z,66.23
2018-10-17T18:38:36.323Z,58.33
2018-10-17T18:41:04.811Z,43.70
2018-10-17T18:43:33.242Z,32.73
2018-10-17T18:46:01.687Z,22.33
2018-10-17T18:48:30.129Z,22.43
2018-10-17T18:50:58.543Z,23.00
2018-10-17T18:53:27.104Z,60.47
2018-10-17T18:55:55.529Z,26.10
2018-10-17T18:58:24.167Z,56.83
2018-10-17T19:00:52.567Z,37.63
2018-10-17T19:03:20.954Z,30.60
2018-10-17T19:05:49.411Z,17.37
2018-10-17T19:08:17.884Z,47.97
2018-10-17T19:10:46.288Z,19.23
2018-10-17T19:13:14.697Z,18.60
2018-10-17T19:15:43.706Z,30.90
2018-10-17T19:18:12.109Z,24.67
2018-10-17T19:20:40.534Z,18.00
2018-10-17T19:23:08.929Z,20.83
2018-10-17T19:25:37.372Z,15.50
2018-10-17T19:28:07.079Z,16.07
2018-10-17T19:30:35.488Z,20.37
2018-10-17T19:33:04.007Z,18.97
2018-10-17T19:35:32.452Z,19.00
2018-10-17T19:38:00.997Z,18.67
2018-10-17T19:40:29.450Z,17.87
2018-10-17T19:42:57.913Z,14.03
2018-10-17T19:45:26.385Z,16.10
2018-10-17T19:47:54.895Z,18.13
2018-10-17T19:50:23.238Z,14.87
2018-10-17T19:52:51.683Z,20.43
2018-10-17T19:55:20.160Z,15.50
2018-10-17T19:57:48.588Z,14.83
2018-10-17T20:00:17.073Z,17.53
2018-10-17T20:02:45.514Z,17.53
2018-10-17T20:05:13.984Z,18.07
2018-10-17T20:07:42.428Z,15.93
2018-10-17T20:10:10.837Z,16.90
2018-10-17T20:12:39.279Z,26.60
2018-10-17T20:15:07.961Z,14.53
2018-10-17T20:17:36.322Z,16.53
2018-10-17T20:20:05.548Z,33.70
2018-10-17T20:22:34.047Z,17.13
2018-10-17T20:25:02.991Z,19.97
2018-10-17T20:27:31.435Z,20.43
2018-10-17T20:29:59.965Z,16.83
2018-10-17T20:32:28.444Z,21.90
2018-10-17T20:34:56.855Z,29.10
2018-10-17T20:37:25.310Z,21.10
2018-10-17T20:39:53.726Z,17.57
2018-10-17T20:42:22.266Z,34.60
2018-10-17T20:44:50.732Z,42.47
2018-10-17T20:47:19.260Z,42.07
2018-10-17T20:49:47.824Z,33.50
2018-10-17T20:52:16.507Z,27.03
2018-10-17T20:54:45.055Z,23.00
2018-10-17T20:57:13.698Z,20.43
2018-10-17T20:59:42.329Z,18.83
2018-10-17T21:02:10.868Z,18.37
2018-10-17T21:04:39.816Z,19.93
2018-10-17T21:07:09.011Z,19.37
2018-10-17T21:09:37.451Z,21.40
2018-10-17T21:12:06.003Z,17.90
2018-10-17T21:14:34.571Z,23.67
2018-10-17T21:17:02.999Z,23.93
2018-10-17T21:19:31.531Z,24.00
2018-10-17T21:22:00.166Z,23.37
2018-10-17T21:24:28.844Z,38.73
2018-10-17T21:26:57.628Z,24.60
2018-10-17T21:29:26.083Z,43.97
2018-10-17T21:31:54.613Z,29.60
2018-10-17T21:34:23.151Z,23.87
2018-10-17T21:36:52.111Z,35.33
2018-10-17T21:39:20.587Z,38.97
2018-10-17T21:41:49.104Z,25.87
2018-10-17T21:44:17.680Z,23.17
2018-10-17T21:46:46.241Z,22.13
2018-10-17T21:49:14.727Z,25.47
2018-10-17T21:51:43.172Z,19.40
2018-10-17T21:54:11.602Z,17.47
2018-10-17T21:56:40.136Z,20.67
2018-10-17T21:59:08.788Z,24.63
2018-10-17T22:01:37.930Z,23.47
2018-10-17T22:04:06.541Z,24.23
2018-10-17T22:06:35.083Z,26.23
2018-10-17T22:09:04.732Z,22.37
2018-10-17T22:11:33.311Z,19.53
2018-10-17T22:14:01.946Z,21.00
2018-10-17T22:16:35.894Z,20.93
2018-10-17T22:19:04.506Z,23.43
2018-10-17T22:21:32.936Z,26.40
2018-10-17T22:24:01.364Z,24.17
2018-10-17T22:26:30.000Z,21.80
2018-10-17T22:28:58.696Z,22.53
2018-10-17T22:31:27.259Z,18.40
2018-10-17T22:33:55.798Z,16.87
2018-10-17T22:36:24.261Z,24.87
2018-10-17T22:38:53.041Z,20.77
2018-10-17T22:41:21.612Z,26.67
2018-10-17T22:43:50.028Z,23.43
2018-10-17T22:46:18.654Z,22.43
2018-10-17T22:48:47.228Z,31.60
2018-10-17T22:51:15.817Z,26.17
2018-10-17T22:53:44.409Z,22.23
2018-10-17T22:56:13.074Z,24.73
2018-10-17T22:58:41.568Z,22.37
2018-10-17T23:01:10.107Z,23.90
2018-10-17T23:03:38.828Z,20.77
2018-10-17T23:06:07.428Z,21.43
2018-10-17T23:08:35.988Z,23.80
2018-10-17T23:11:05.160Z,20.93
2018-10-17T23:13:33.880Z,22.67
2018-10-17T23:16:02.643Z,21.97
2018-10-17T23:18:31.334Z,20.30
2018-10-17T23:21:00.008Z,23.97
2018-10-17T23:23:28.591Z,21.93
2018-10-17T23:25:57.510Z,22.70
2018-10-17T23:28:26.218Z,21.03
2018-10-17T23:30:54.929Z,21.57
2018-10-17T23:33:23.550Z,21.20
2018-10-17T23:35:52.147Z,20.07
2018-10-17T23:38:20.699Z,23.40
2018-10-17T23:40:49.341Z,18.87
2018-10-17T23:43:18.026Z,17.80
2018-10-17T23:45:46.638Z,17.60
2018-10-17T23:48:15.412Z,17.37
2018-10-17T23:50:43.937Z,21.70
2018-10-17T23:53:12.496Z,19.80
2018-10-17T23:55:41.220Z,22.07
2018-10-17T23:58:09.912Z,35.40
